sensor_id;sensor_type;location;lat;lon;timestamp;P1;durP1;ratioP1;P2;durP2;ratioP2
72493;SDS011;60520;49.182;-0.348;2022-12-11T00:01:31;3.75;;;2.83;;
72493;SDS011;60520;49.182;-0.348;2022-12-11T00:03:58;4.00;;;2.90;;
72493;SDS011;60520;49.182;-0.348;2022-12-11T00:06:25;4.45;;;3.03;;
72493;SDS011;60520;49.182;-0.348;2022-12-11T00:08:52;4.82;;;3.10;;
72493;SDS011;60520;49.182;-0.348;2022-12-11T00:11:19;4.32;;;2.80;;
72493;SDS011;60520;49.182;-0.348;2022-12-11T00:13:48;4.25;;;3.00;;
72493;SDS011;60520;49.182;-0.348;2022-12-11T00:16:15;4.00;;;3.03;;
72493;SDS011;60520;49.182;-0.348;2022-12-11T00:18:43;5.43;;;2.95;;
72493;SDS011;60520;49.182;-0.348;2022-12-11T00:21:11;4.22;;;3.05;;
72493;SDS011;60520;49.182;-0.348;2022-12-11T00:23:39;5.45;;;3.20;;
72493;SDS011;60520;49.182;-0.348;2022-12-11T00:26:07;4.25;;;3.10;;
72493;SDS011;60520;49.182;-0.348;2022-12-11T00:28:34;4.35;;;3.00;;
72493;SDS011;60520;49.182;-0.348;2022-12-11T00:31:04;3.70;;;2.85;;
72493;SDS011;60520;49.182;-0.348;2022-12-11T00:33:31;3.53;;;2.80;;
72493;SDS011;60520;49.182;-0.348;2022-12-11T00:35:58;4.18;;;2.88;;
72493;SDS011;60520;49.182;-0.348;2022-12-11T00:38:25;3.20;;;2.50;;
72493;SDS011;60520;49.182;-0.348;2022-12-11T00:40:56;3.42;;;2.70;;
72493;SDS011;60520;49.182;-0.348;2022-12-11T00:43:23;3.80;;;2.88;;
72493;SDS011;60520;49.182;-0.348;2022-12-11T00:45:50;3.55;;;2.85;;
72493;SDS011;60520;49.182;-0.348;2022-12-11T00:48:19;4.03;;;3.00;;
72493;SDS011;60520;49.182;-0.348;2022-12-11T00:50:46;5.53;;;2.97;;
72493;SDS011;60520;49.182;-0.348;2022-12-11T00:53:13;3.78;;;2.88;;
72493;SDS011;60520;49.182;-0.348;2022-12-11T00:55:41;4.18;;;3.05;;
72493;SDS011;60520;49.182;-0.348;2022-12-11T00:58:08;3.65;;;2.78;;
72493;SDS011;60520;49.182;-0.348;2022-12-11T01:00:36;3.60;;;2.70;;
72493;SDS011;60520;49.182;-0.348;2022-12-11T01:03:03;4.68;;;3.25;;
72493;SDS011;60520;49.182;-0.348;2022-12-11T01:05:32;4.07;;;2.80;;
72493;SDS011;60520;49.182;-0.348;2022-12-11T01:07:59;2.97;;;2.60;;
72493;SDS011;60520;49.182;-0.348;2022-12-11T01:10:27;3.67;;;2.60;;
72493;SDS011;60520;49.182;-0.348;2022-12-11T01:12:55;3.70;;;2.85;;
72493;SDS011;60520;49.182;-0.348;2022-12-11T01:15:23;4.20;;;2.95;;
72493;SDS011;60520;49.182;-0.348;2022-12-11T01:17:50;3.67;;;2.78;;
72493;SDS011;60520;49.182;-0.348;2022-12-11T01:20:18;3.25;;;2.80;;
72493;SDS011;60520;49.182;-0.348;2022-12-11T01:22:47;4.53;;;2.92;;
72493;SDS011;60520;49.182;-0.348;2022-12-11T01:25:14;4.03;;;3.10;;
72493;SDS011;60520;49.182;-0.348;2022-12-11T01:27:41;4.25;;;2.90;;
72493;SDS011;60520;49.182;-0.348;2022-12-11T01:30:08;4.38;;;3.20;;
72493;SDS011;60520;49.182;-0.348;2022-12-11T01:32:36;3.88;;;2.70;;
72493;SDS011;60520;49.182;-0.348;2022-12-11T01:35:03;3.78;;;3.05;;
72493;SDS011;60520;49.182;-0.348;2022-12-11T01:37:31;3.70;;;2.65;;
72493;SDS011;60520;49.182;-0.348;2022-12-11T01:40:00;3.58;;;2.83;;
72493;SDS011;60520;49.182;-0.348;2022-12-11T01:42:27;4.38;;;2.95;;
72493;SDS011;60520;49.182;-0.348;2022-12-11T01:45:13;3.67;;;2.50;;
72493;SDS011;60520;49.182;-0.348;2022-12-11T01:47:42;3.25;;;2.78;;
72493;SDS011;60520;49.182;-0.348;2022-12-11T01:50:09;3.97;;;3.10;;
72493;SDS011;60520;49.182;-0.348;2022-12-11T01:52:37;3.50;;;2.80;;
72493;SDS011;60520;49.182;-0.348;2022-12-11T01:55:05;3.63;;;2.85;;
72493;SDS011;60520;49.182;-0.348;2022-12-11T01:57:33;3.78;;;2.85;;
72493;SDS011;60520;49.182;-0.348;2022-12-11T02:00:02;4.15;;;2.92;;
72493;SDS011;60520;49.182;-0.348;2022-12-11T02:02:29;3.88;;;2.88;;
72493;SDS011;60520;49.182;-0.348;2022-12-11T02:04:57;4.18;;;3.03;;
72493;SDS011;60520;49.182;-0.348;2022-12-11T02:07:25;4.22;;;2.90;;
72493;SDS011;60520;49.182;-0.348;2022-12-11T02:09:52;4.50;;;2.92;;
72493;SDS011;60520;49.182;-0.348;2022-12-11T02:12:22;4.07;;;3.13;;
72493;SDS011;60520;49.182;-0.348;2022-12-11T02:14:52;4.78;;;3.13;;
72493;SDS011;60520;49.182;-0.348;2022-12-11T02:17:22;4.80;;;3.60;;
72493;SDS011;60520;49.182;-0.348;2022-12-11T02:19:54;4.47;;;3.67;;
72493;SDS011;60520;49.182;-0.348;2022-12-11T02:22:26;4.32;;;3.60;;
72493;SDS011;60520;49.182;-0.348;2022-12-11T02:24:57;4.40;;;3.38;;
72493;SDS011;60520;49.182;-0.348;2022-12-11T02:27:32;4.60;;;3.40;;
72493;SDS011;60520;49.182;-0.348;2022-12-11T02:30:03;5.38;;;3.58;;
72493;SDS011;60520;49.182;-0.348;2022-12-11T02:32:32;4.43;;;3.50;;
72493;SDS011;60520;49.182;-0.348;2022-12-11T02:35:03;3.60;;;3.10;;
72493;SDS011;60520;49.182;-0.348;2022-12-11T02:37:31;5.32;;;3.55;;
72493;SDS011;60520;49.182;-0.348;2022-12-11T02:40:00;5.10;;;3.72;;
72493;SDS011;60520;49.182;-0.348;2022-12-11T02:42:28;5.18;;;3.30;;
72493;SDS011;60520;49.182;-0.348;2022-12-11T02:44:57;5.93;;;3.67;;
72493;SDS011;60520;49.182;-0.348;2022-12-11T02:47:27;4.55;;;3.65;;
72493;SDS011;60520;49.182;-0.348;2022-12-11T02:49:54;5.00;;;3.42;;
72493;SDS011;60520;49.182;-0.348;2022-12-11T02:52:22;4.95;;;3.70;;
72493;SDS011;60520;49.182;-0.348;2022-12-11T02:54:51;4.55;;;3.55;;
72493;SDS011;60520;49.182;-0.348;2022-12-11T02:57:20;4.53;;;3.40;;
72493;SDS011;60520;49.182;-0.348;2022-12-11T02:59:49;4.07;;;3.55;;
72493;SDS011;60520;49.182;-0.348;2022-12-11T03:02:16;4.30;;;3.30;;
72493;SDS011;60520;49.182;-0.348;2022-12-11T03:04:45;5.57;;;3.83;;
72493;SDS011;60520;49.182;-0.348;2022-12-11T03:07:14;4.78;;;3.50;;
72493;SDS011;60520;49.182;-0.348;2022-12-11T03:09:42;3.92;;;3.40;;
72493;SDS011;60520;49.182;-0.348;2022-12-11T03:12:11;5.07;;;3.70;;
72493;SDS011;60520;49.182;-0.348;2022-12-11T03:14:39;4.00;;;3.33;;
72493;SDS011;60520;49.182;-0.348;2022-12-11T03:17:10;4.28;;;3.22;;
72493;SDS011;60520;49.182;-0.348;2022-12-11T03:19:40;4.88;;;3.38;;
72493;SDS011;60520;49.182;-0.348;2022-12-11T03:22:09;4.47;;;3.47;;
72493;SDS011;60520;49.182;-0.348;2022-12-11T03:24:37;4.95;;;3.40;;
72493;SDS011;60520;49.182;-0.348;2022-12-11T03:27:08;4.18;;;3.50;;
72493;SDS011;60520;49.182;-0.348;2022-12-11T03:29:38;4.15;;;3.33;;
72493;SDS011;60520;49.182;-0.348;2022-12-11T03:32:07;4.57;;;3.20;;
72493;SDS011;60520;49.182;-0.348;2022-12-11T03:34:37;3.45;;;2.88;;
72493;SDS011;60520;49.182;-0.348;2022-12-11T03:37:08;4.57;;;3.03;;
72493;SDS011;60520;49.182;-0.348;2022-12-11T03:39:36;4.05;;;3.28;;
72493;SDS011;60520;49.182;-0.348;2022-12-11T03:42:05;3.83;;;3.28;;
72493;SDS011;60520;49.182;-0.348;2022-12-11T03:44:32;4.60;;;3.55;;
72493;SDS011;60520;49.182;-0.348;2022-12-11T03:47:01;3.92;;;3.33;;
72493;SDS011;60520;49.182;-0.348;2022-12-11T03:49:32;4.38;;;3.30;;
72493;SDS011;60520;49.182;-0.348;2022-12-11T03:52:00;4.78;;;3.47;;
72493;SDS011;60520;49.182;-0.348;2022-12-11T03:54:29;4.40;;;3.67;;
72493;SDS011;60520;49.182;-0.348;2022-12-11T03:56:57;4.47;;;3.20;;
72493;SDS011;60520;49.182;-0.348;2022-12-11T03:59:26;3.65;;;3.03;;
72493;SDS011;60520;49.182;-0.348;2022-12-11T04:01:53;4.10;;;3.00;;
72493;SDS011;60520;49.182;-0.348;2022-12-11T04:04:20;4.72;;;3.63;;
72493;SDS011;60520;49.182;-0.348;2022-12-11T04:06:47;5.45;;;3.50;;
72493;SDS011;60520;49.182;-0.348;2022-12-11T04:09:14;3.50;;;2.88;;
72493;SDS011;60520;49.182;-0.348;2022-12-11T04:11:43;4.00;;;3.28;;
72493;SDS011;60520;49.182;-0.348;2022-12-11T04:14:10;4.30;;;3.42;;
72493;SDS011;60520;49.182;-0.348;2022-12-11T04:16:56;3.30;;;2.80;;
72493;SDS011;60520;49.182;-0.348;2022-12-11T04:19:24;4.30;;;2.90;;
72493;SDS011;60520;49.182;-0.348;2022-12-11T04:22:09;5.15;;;3.38;;
72493;SDS011;60520;49.182;-0.348;2022-12-11T04:24:53;3.28;;;2.83;;
72493;SDS011;60520;49.182;-0.348;2022-12-11T04:27:21;3.42;;;3.13;;
72493;SDS011;60520;49.182;-0.348;2022-12-11T04:30:07;3.30;;;2.88;;
72493;SDS011;60520;49.182;-0.348;2022-12-11T04:32:35;4.38;;;3.00;;
72493;SDS011;60520;49.182;-0.348;2022-12-11T04:35:03;3.92;;;3.13;;
72493;SDS011;60520;49.182;-0.348;2022-12-11T04:37:30;3.50;;;2.70;;
72493;SDS011;60520;49.182;-0.348;2022-12-11T04:39:57;3.67;;;2.88;;
72493;SDS011;60520;49.182;-0.348;2022-12-11T04:42:26;3.22;;;2.83;;
72493;SDS011;60520;49.182;-0.348;2022-12-11T04:44:53;4.22;;;3.17;;
72493;SDS011;60520;49.182;-0.348;2022-12-11T04:47:20;4.13;;;3.13;;
72493;SDS011;60520;49.182;-0.348;2022-12-11T04:49:47;4.05;;;2.92;;
72493;SDS011;60520;49.182;-0.348;2022-12-11T04:52:14;4.10;;;3.33;;
72493;SDS011;60520;49.182;-0.348;2022-12-11T04:54:41;3.50;;;2.88;;
72493;SDS011;60520;49.182;-0.348;2022-12-11T04:57:08;3.75;;;3.00;;
72493;SDS011;60520;49.182;-0.348;2022-12-11T04:59:37;4.50;;;3.25;;
72493;SDS011;60520;49.182;-0.348;2022-12-11T05:02:04;3.45;;;2.80;;
72493;SDS011;60520;49.182;-0.348;2022-12-11T05:04:32;3.28;;;2.67;;
72493;SDS011;60520;49.182;-0.348;2022-12-11T05:06:59;3.75;;;3.00;;
72493;SDS011;60520;49.182;-0.348;2022-12-11T05:09:27;3.55;;;2.90;;
72493;SDS011;60520;49.182;-0.348;2022-12-11T05:11:54;3.30;;;2.75;;
72493;SDS011;60520;49.182;-0.348;2022-12-11T05:14:21;3.33;;;3.03;;
72493;SDS011;60520;49.182;-0.348;2022-12-11T05:16:49;3.58;;;2.80;;
72493;SDS011;60520;49.182;-0.348;2022-12-11T05:19:16;3.75;;;2.92;;
72493;SDS011;60520;49.182;-0.348;2022-12-11T05:21:44;4.03;;;3.10;;
72493;SDS011;60520;49.182;-0.348;2022-12-11T05:24:11;3.75;;;2.78;;
72493;SDS011;60520;49.182;-0.348;2022-12-11T05:26:38;3.35;;;2.50;;
72493;SDS011;60520;49.182;-0.348;2022-12-11T05:29:05;3.80;;;2.90;;
72493;SDS011;60520;49.182;-0.348;2022-12-11T05:31:32;3.42;;;2.78;;
72493;SDS011;60520;49.182;-0.348;2022-12-11T05:34:00;3.50;;;2.67;;
72493;SDS011;60520;49.182;-0.348;2022-12-11T05:36:31;3.05;;;2.75;;
72493;SDS011;60520;49.182;-0.348;2022-12-11T05:39:01;3.88;;;2.83;;
72493;SDS011;60520;49.182;-0.348;2022-12-11T05:41:29;4.00;;;3.30;;
72493;SDS011;60520;49.182;-0.348;2022-12-11T05:43:56;3.60;;;2.78;;
72493;SDS011;60520;49.182;-0.348;2022-12-11T05:46:24;3.13;;;2.55;;
72493;SDS011;60520;49.182;-0.348;2022-12-11T05:48:53;3.45;;;2.92;;
72493;SDS011;60520;49.182;-0.348;2022-12-11T05:51:21;3.85;;;2.97;;
72493;SDS011;60520;49.182;-0.348;2022-12-11T05:53:50;3.42;;;2.60;;
72493;SDS011;60520;49.182;-0.348;2022-12-11T05:56:19;3.60;;;2.70;;
72493;SDS011;60520;49.182;-0.348;2022-12-11T05:58:46;3.53;;;2.78;;
72493;SDS011;60520;49.182;-0.348;2022-12-11T06:01:15;3.78;;;3.00;;
72493;SDS011;60520;49.182;-0.348;2022-12-11T06:03:42;3.38;;;2.80;;
72493;SDS011;60520;49.182;-0.348;2022-12-11T06:06:09;3.85;;;2.92;;
72493;SDS011;60520;49.182;-0.348;2022-12-11T06:08:38;3.50;;;2.85;;
72493;SDS011;60520;49.182;-0.348;2022-12-11T06:11:05;3.78;;;2.70;;
72493;SDS011;60520;49.182;-0.348;2022-12-11T06:13:32;3.40;;;2.63;;
72493;SDS011;60520;49.182;-0.348;2022-12-11T06:16:00;3.75;;;3.03;;
72493;SDS011;60520;49.182;-0.348;2022-12-11T06:18:27;2.97;;;2.50;;
72493;SDS011;60520;49.182;-0.348;2022-12-11T06:20:55;4.43;;;2.60;;
72493;SDS011;60520;49.182;-0.348;2022-12-11T06:23:22;3.83;;;2.80;;
72493;SDS011;60520;49.182;-0.348;2022-12-11T06:25:50;3.30;;;2.90;;
72493;SDS011;60520;49.182;-0.348;2022-12-11T06:28:17;3.45;;;2.63;;
72493;SDS011;60520;49.182;-0.348;2022-12-11T06:30:44;3.00;;;2.60;;
72493;SDS011;60520;49.182;-0.348;2022-12-11T06:33:11;2.75;;;2.50;;
72493;SDS011;60520;49.182;-0.348;2022-12-11T06:35:39;4.10;;;2.75;;
72493;SDS011;60520;49.182;-0.348;2022-12-11T06:38:06;3.50;;;2.60;;
72493;SDS011;60520;49.182;-0.348;2022-12-11T06:40:33;3.42;;;2.78;;
72493;SDS011;60520;49.182;-0.348;2022-12-11T06:43:01;2.90;;;2.47;;
72493;SDS011;60520;49.182;-0.348;2022-12-11T06:45:28;3.13;;;2.78;;
72493;SDS011;60520;49.182;-0.348;2022-12-11T06:47:55;3.08;;;2.78;;
72493;SDS011;60520;49.182;-0.348;2022-12-11T06:50:22;2.88;;;2.53;;
72493;SDS011;60520;49.182;-0.348;2022-12-11T06:52:50;3.38;;;2.72;;
72493;SDS011;60520;49.182;-0.348;2022-12-11T06:55:17;3.97;;;2.72;;
72493;SDS011;60520;49.182;-0.348;2022-12-11T06:57:44;2.58;;;2.30;;
72493;SDS011;60520;49.182;-0.348;2022-12-11T07:00:13;4.18;;;2.67;;
72493;SDS011;60520;49.182;-0.348;2022-12-11T07:02:40;3.35;;;2.47;;
72493;SDS011;60520;49.182;-0.348;2022-12-11T07:05:07;3.53;;;2.53;;
72493;SDS011;60520;49.182;-0.348;2022-12-11T07:07:35;4.00;;;2.78;;
72493;SDS011;60520;49.182;-0.348;2022-12-11T07:10:02;2.50;;;2.30;;
72493;SDS011;60520;49.182;-0.348;2022-12-11T07:12:29;4.38;;;2.80;;
72493;SDS011;60520;49.182;-0.348;2022-12-11T07:14:56;2.85;;;2.47;;
72493;SDS011;60520;49.182;-0.348;2022-12-11T07:17:25;2.95;;;2.53;;
72493;SDS011;60520;49.182;-0.348;2022-12-11T07:19:52;3.03;;;2.38;;
72493;SDS011;60520;49.182;-0.348;2022-12-11T07:22:19;3.03;;;2.47;;
72493;SDS011;60520;49.182;-0.348;2022-12-11T07:24:46;3.65;;;2.55;;
72493;SDS011;60520;49.182;-0.348;2022-12-11T07:27:13;2.90;;;2.55;;
72493;SDS011;60520;49.182;-0.348;2022-12-11T07:29:40;3.40;;;2.58;;
72493;SDS011;60520;49.182;-0.348;2022-12-11T07:32:09;3.00;;;2.38;;
72493;SDS011;60520;49.182;-0.348;2022-12-11T07:34:37;3.03;;;2.50;;
72493;SDS011;60520;49.182;-0.348;2022-12-11T07:37:05;3.63;;;2.55;;
72493;SDS011;60520;49.182;-0.348;2022-12-11T07:39:32;2.83;;;2.53;;
72493;SDS011;60520;49.182;-0.348;2022-12-11T07:41:59;2.83;;;2.35;;
72493;SDS011;60520;49.182;-0.348;2022-12-11T07:44:26;3.33;;;2.53;;
72493;SDS011;60520;49.182;-0.348;2022-12-11T07:46:54;3.22;;;2.30;;
72493;SDS011;60520;49.182;-0.348;2022-12-11T07:49:21;3.03;;;2.58;;
72493;SDS011;60520;49.182;-0.348;2022-12-11T07:51:49;2.97;;;2.38;;
72493;SDS011;60520;49.182;-0.348;2022-12-11T07:54:16;3.33;;;2.45;;
72493;SDS011;60520;49.182;-0.348;2022-12-11T07:56:45;3.63;;;2.67;;
72493;SDS011;60520;49.182;-0.348;2022-12-11T07:59:12;2.75;;;2.45;;
72493;SDS011;60520;49.182;-0.348;2022-12-11T08:01:40;3.42;;;2.67;;
72493;SDS011;60520;49.182;-0.348;2022-12-11T08:04:08;3.88;;;2.60;;
72493;SDS011;60520;49.182;-0.348;2022-12-11T08:06:36;3.00;;;2.50;;
72493;SDS011;60520;49.182;-0.348;2022-12-11T08:09:05;2.70;;;2.40;;
72493;SDS011;60520;49.182;-0.348;2022-12-11T08:11:33;3.00;;;2.30;;
72493;SDS011;60520;49.182;-0.348;2022-12-11T08:14:00;3.22;;;2.53;;
72493;SDS011;60520;49.182;-0.348;2022-12-11T08:16:27;3.00;;;2.40;;
72493;SDS011;60520;49.182;-0.348;2022-12-11T08:18:55;2.60;;;2.20;;
72493;SDS011;60520;49.182;-0.348;2022-12-11T08:21:22;3.42;;;2.20;;
72493;SDS011;60520;49.182;-0.348;2022-12-11T08:23:50;3.33;;;2.53;;
72493;SDS011;60520;49.182;-0.348;2022-12-11T08:26:20;2.50;;;2.05;;
72493;SDS011;60520;49.182;-0.348;2022-12-11T08:28:47;2.83;;;2.40;;
72493;SDS011;60520;49.182;-0.348;2022-12-11T08:31:14;2.80;;;2.25;;
72493;SDS011;60520;49.182;-0.348;2022-12-11T08:33:42;3.00;;;2.20;;
72493;SDS011;60520;49.182;-0.348;2022-12-11T08:36:10;3.30;;;2.50;;
72493;SDS011;60520;49.182;-0.348;2022-12-11T08:38:38;3.95;;;2.30;;
72493;SDS011;60520;49.182;-0.348;2022-12-11T08:41:08;2.83;;;2.40;;
72493;SDS011;60520;49.182;-0.348;2022-12-11T08:43:37;2.83;;;2.38;;
72493;SDS011;60520;49.182;-0.348;2022-12-11T08:46:04;2.72;;;2.33;;
72493;SDS011;60520;49.182;-0.348;2022-12-11T08:48:32;2.60;;;2.20;;
72493;SDS011;60520;49.182;-0.348;2022-12-11T08:50:59;2.53;;;2.08;;
72493;SDS011;60520;49.182;-0.348;2022-12-11T08:53:27;2.50;;;2.30;;
72493;SDS011;60520;49.182;-0.348;2022-12-11T08:55:59;2.65;;;2.20;;
72493;SDS011;60520;49.182;-0.348;2022-12-11T08:58:26;3.55;;;2.50;;
72493;SDS011;60520;49.182;-0.348;2022-12-11T09:00:54;2.45;;;2.15;;
72493;SDS011;60520;49.182;-0.348;2022-12-11T09:03:22;2.65;;;2.25;;
72493;SDS011;60520;49.182;-0.348;2022-12-11T09:05:49;2.47;;;2.22;;
72493;SDS011;60520;49.182;-0.348;2022-12-11T09:08:16;3.58;;;2.67;;
72493;SDS011;60520;49.182;-0.348;2022-12-11T09:10:43;2.83;;;2.42;;
72493;SDS011;60520;49.182;-0.348;2022-12-11T09:13:10;2.95;;;2.40;;
72493;SDS011;60520;49.182;-0.348;2022-12-11T09:15:38;3.20;;;2.40;;
72493;SDS011;60520;49.182;-0.348;2022-12-11T09:18:07;2.58;;;2.08;;
72493;SDS011;60520;49.182;-0.348;2022-12-11T09:20:35;2.50;;;2.10;;
72493;SDS011;60520;49.182;-0.348;2022-12-11T09:23:02;2.60;;;2.15;;
72493;SDS011;60520;49.182;-0.348;2022-12-11T09:25:29;2.88;;;2.30;;
72493;SDS011;60520;49.182;-0.348;2022-12-11T09:27:56;2.50;;;2.10;;
72493;SDS011;60520;49.182;-0.348;2022-12-11T09:30:23;2.70;;;2.10;;
72493;SDS011;60520;49.182;-0.348;2022-12-11T09:32:50;2.33;;;2.10;;
72493;SDS011;60520;49.182;-0.348;2022-12-11T09:35:19;2.80;;;2.10;;
72493;SDS011;60520;49.182;-0.348;2022-12-11T09:37:46;2.10;;;1.90;;
72493;SDS011;60520;49.182;-0.348;2022-12-11T09:40:13;2.83;;;2.30;;
72493;SDS011;60520;49.182;-0.348;2022-12-11T09:42:45;2.75;;;2.38;;
72493;SDS011;60520;49.182;-0.348;2022-12-11T09:45:14;2.90;;;2.33;;
72493;SDS011;60520;49.182;-0.348;2022-12-11T09:47:42;2.40;;;1.95;;
72493;SDS011;60520;49.182;-0.348;2022-12-11T09:50:12;2.47;;;2.03;;
72493;SDS011;60520;49.182;-0.348;2022-12-11T09:52:45;3.92;;;2.50;;
72493;SDS011;60520;49.182;-0.348;2022-12-11T09:55:14;2.63;;;2.22;;
72493;SDS011;60520;49.182;-0.348;2022-12-11T09:57:45;2.55;;;1.90;;
72493;SDS011;60520;49.182;-0.348;2022-12-11T10:00:14;2.80;;;2.17;;
72493;SDS011;60520;49.182;-0.348;2022-12-11T10:02:47;3.55;;;2.30;;
72493;SDS011;60520;49.182;-0.348;2022-12-11T10:05:20;2.65;;;2.20;;
72493;SDS011;60520;49.182;-0.348;2022-12-11T10:07:53;2.28;;;2.00;;
72493;SDS011;60520;49.182;-0.348;2022-12-11T10:10:25;3.08;;;2.42;;
72493;SDS011;60520;49.182;-0.348;2022-12-11T10:12:57;2.60;;;2.17;;
72493;SDS011;60520;49.182;-0.348;2022-12-11T10:15:32;2.53;;;2.08;;
72493;SDS011;60520;49.182;-0.348;2022-12-11T10:18:00;2.95;;;2.15;;
72493;SDS011;60520;49.182;-0.348;2022-12-11T10:20:28;2.40;;;1.92;;
72493;SDS011;60520;49.182;-0.348;2022-12-11T10:23:00;3.08;;;2.10;;
72493;SDS011;60520;49.182;-0.348;2022-12-11T10:25:30;2.20;;;1.70;;
72493;SDS011;60520;49.182;-0.348;2022-12-11T10:27:58;3.08;;;2.40;;
72493;SDS011;60520;49.182;-0.348;2022-12-11T10:30:26;2.90;;;2.05;;
72493;SDS011;60520;49.182;-0.348;2022-12-11T10:32:56;3.47;;;2.22;;
72493;SDS011;60520;49.182;-0.348;2022-12-11T10:35:28;2.22;;;1.90;;
72493;SDS011;60520;49.182;-0.348;2022-12-11T10:38:00;2.30;;;2.00;;
72493;SDS011;60520;49.182;-0.348;2022-12-11T10:40:29;2.13;;;1.88;;
72493;SDS011;60520;49.182;-0.348;2022-12-11T10:42:57;2.20;;;1.85;;
72493;SDS011;60520;49.182;-0.348;2022-12-11T10:45:24;2.88;;;2.10;;
72493;SDS011;60520;49.182;-0.348;2022-12-11T10:48:00;3.13;;;1.88;;
72493;SDS011;60520;49.182;-0.348;2022-12-11T10:50:27;2.80;;;2.00;;
72493;SDS011;60520;49.182;-0.348;2022-12-11T10:52:54;2.92;;;2.30;;
72493;SDS011;60520;49.182;-0.348;2022-12-11T10:55:23;2.95;;;2.10;;
72493;SDS011;60520;49.182;-0.348;2022-12-11T10:57:56;2.55;;;2.05;;
72493;SDS011;60520;49.182;-0.348;2022-12-11T11:00:28;2.22;;;1.77;;
72493;SDS011;60520;49.182;-0.348;2022-12-11T11:02:56;2.60;;;2.10;;
72493;SDS011;60520;49.182;-0.348;2022-12-11T11:05:27;2.28;;;2.05;;
72493;SDS011;60520;49.182;-0.348;2022-12-11T11:08:01;2.67;;;1.90;;
72493;SDS011;60520;49.182;-0.348;2022-12-11T11:10:28;2.88;;;2.20;;
72493;SDS011;60520;49.182;-0.348;2022-12-11T11:13:00;2.10;;;1.90;;
72493;SDS011;60520;49.182;-0.348;2022-12-11T11:15:27;2.10;;;1.80;;
72493;SDS011;60520;49.182;-0.348;2022-12-11T11:17:55;2.47;;;2.00;;
72493;SDS011;60520;49.182;-0.348;2022-12-11T11:20:23;3.08;;;2.17;;
72493;SDS011;60520;49.182;-0.348;2022-12-11T11:22:52;2.17;;;1.90;;
72493;SDS011;60520;49.182;-0.348;2022-12-11T11:25:20;3.00;;;2.22;;
72493;SDS011;60520;49.182;-0.348;2022-12-11T11:27:49;2.35;;;2.00;;
72493;SDS011;60520;49.182;-0.348;2022-12-11T11:30:19;2.47;;;2.03;;
72493;SDS011;60520;49.182;-0.348;2022-12-11T11:32:46;2.42;;;1.77;;
72493;SDS011;60520;49.182;-0.348;2022-12-11T11:35:17;2.15;;;1.92;;
72493;SDS011;60520;49.182;-0.348;2022-12-11T11:37:46;2.35;;;1.98;;
72493;SDS011;60520;49.182;-0.348;2022-12-11T11:40:14;2.35;;;1.92;;
72493;SDS011;60520;49.182;-0.348;2022-12-11T11:42:45;3.70;;;2.35;;
72493;SDS011;60520;49.182;-0.348;2022-12-11T11:45:13;2.75;;;1.95;;
72493;SDS011;60520;49.182;-0.348;2022-12-11T11:47:44;2.55;;;1.83;;
72493;SDS011;60520;49.182;-0.348;2022-12-11T11:50:15;2.35;;;2.00;;
72493;SDS011;60520;49.182;-0.348;2022-12-11T11:52:45;2.72;;;1.90;;
72493;SDS011;60520;49.182;-0.348;2022-12-11T11:55:15;2.80;;;2.22;;
72493;SDS011;60520;49.182;-0.348;2022-12-11T11:57:44;2.85;;;2.03;;
72493;SDS011;60520;49.182;-0.348;2022-12-11T12:00:15;3.05;;;2.22;;
72493;SDS011;60520;49.182;-0.348;2022-12-11T12:02:46;2.35;;;1.70;;
72493;SDS011;60520;49.182;-0.348;2022-12-11T12:05:14;2.10;;;1.90;;
72493;SDS011;60520;49.182;-0.348;2022-12-11T12:07:44;2.58;;;1.98;;
72493;SDS011;60520;49.182;-0.348;2022-12-11T12:10:15;2.97;;;2.20;;
72493;SDS011;60520;49.182;-0.348;2022-12-11T12:12:48;2.28;;;1.75;;
72493;SDS011;60520;49.182;-0.348;2022-12-11T12:15:22;2.35;;;1.98;;
72493;SDS011;60520;49.182;-0.348;2022-12-11T12:17:53;2.30;;;2.00;;
72493;SDS011;60520;49.182;-0.348;2022-12-11T12:20:23;2.28;;;1.77;;
72493;SDS011;60520;49.182;-0.348;2022-12-11T12:22:56;2.40;;;2.05;;
72493;SDS011;60520;49.182;-0.348;2022-12-11T12:25:27;2.70;;;2.00;;
72493;SDS011;60520;49.182;-0.348;2022-12-11T12:27:58;2.40;;;1.88;;
72493;SDS011;60520;49.182;-0.348;2022-12-11T12:30:25;2.65;;;1.95;;
72493;SDS011;60520;49.182;-0.348;2022-12-11T12:33:13;2.70;;;1.90;;
72493;SDS011;60520;49.182;-0.348;2022-12-11T12:35:42;2.60;;;1.90;;
72493;SDS011;60520;49.182;-0.348;2022-12-11T12:38:12;2.53;;;1.95;;
72493;SDS011;60520;49.182;-0.348;2022-12-11T12:40:44;2.17;;;1.75;;
72493;SDS011;60520;49.182;-0.348;2022-12-11T12:43:22;2.30;;;1.92;;
72493;SDS011;60520;49.182;-0.348;2022-12-11T12:45:53;2.28;;;1.85;;
72493;SDS011;60520;49.182;-0.348;2022-12-11T12:48:26;2.08;;;1.70;;
72493;SDS011;60520;49.182;-0.348;2022-12-11T12:50:54;2.38;;;2.00;;
72493;SDS011;60520;49.182;-0.348;2022-12-11T12:53:23;2.60;;;2.00;;
72493;SDS011;60520;49.182;-0.348;2022-12-11T12:55:51;2.42;;;1.90;;
72493;SDS011;60520;49.182;-0.348;2022-12-11T12:58:23;2.20;;;1.85;;
72493;SDS011;60520;49.182;-0.348;2022-12-11T13:00:51;2.97;;;2.13;;
72493;SDS011;60520;49.182;-0.348;2022-12-11T13:03:19;2.28;;;1.77;;
72493;SDS011;60520;49.182;-0.348;2022-12-11T13:05:55;2.05;;;1.80;;
72493;SDS011;60520;49.182;-0.348;2022-12-11T13:08:23;2.40;;;1.80;;
72493;SDS011;60520;49.182;-0.348;2022-12-11T13:10:57;3.05;;;2.10;;
72493;SDS011;60520;49.182;-0.348;2022-12-11T13:13:29;2.17;;;1.80;;
72493;SDS011;60520;49.182;-0.348;2022-12-11T13:16:05;2.92;;;1.95;;
72493;SDS011;60520;49.182;-0.348;2022-12-11T13:18:33;2.58;;;2.00;;
72493;SDS011;60520;49.182;-0.348;2022-12-11T13:21:02;2.92;;;2.05;;
72493;SDS011;60520;49.182;-0.348;2022-12-11T13:23:30;2.30;;;1.85;;
72493;SDS011;60520;49.182;-0.348;2022-12-11T13:25:59;2.53;;;1.77;;
72493;SDS011;60520;49.182;-0.348;2022-12-11T13:28:27;2.78;;;1.80;;
72493;SDS011;60520;49.182;-0.348;2022-12-11T13:30:56;1.92;;;1.60;;
72493;SDS011;60520;49.182;-0.348;2022-12-11T13:33:23;2.65;;;1.75;;
72493;SDS011;60520;49.182;-0.348;2022-12-11T13:36:03;2.10;;;1.65;;
72493;SDS011;60520;49.182;-0.348;2022-12-11T13:38:32;2.60;;;2.10;;
72493;SDS011;60520;49.182;-0.348;2022-12-11T13:40:59;2.40;;;2.05;;
72493;SDS011;60520;49.182;-0.348;2022-12-11T13:43:27;1.90;;;1.60;;
72493;SDS011;60520;49.182;-0.348;2022-12-11T13:45:56;1.80;;;1.70;;
72493;SDS011;60520;49.182;-0.348;2022-12-11T13:48:26;2.42;;;1.70;;
72493;SDS011;60520;49.182;-0.348;2022-12-11T13:50:53;2.53;;;1.80;;
72493;SDS011;60520;49.182;-0.348;2022-12-11T13:53:23;2.63;;;1.95;;
72493;SDS011;60520;49.182;-0.348;2022-12-11T13:55:57;2.10;;;1.88;;
72493;SDS011;60520;49.182;-0.348;2022-12-11T13:58:24;2.85;;;2.08;;
72493;SDS011;60520;49.182;-0.348;2022-12-11T14:00:52;2.25;;;1.83;;
72493;SDS011;60520;49.182;-0.348;2022-12-11T14:03:20;2.63;;;2.03;;
72493;SDS011;60520;49.182;-0.348;2022-12-11T14:05:47;2.72;;;1.83;;
72493;SDS011;60520;49.182;-0.348;2022-12-11T14:08:16;3.25;;;1.70;;
72493;SDS011;60520;49.182;-0.348;2022-12-11T14:10:45;2.65;;;1.95;;
72493;SDS011;60520;49.182;-0.348;2022-12-11T14:13:18;2.13;;;1.80;;
72493;SDS011;60520;49.182;-0.348;2022-12-11T14:15:47;2.28;;;1.73;;
72493;SDS011;60520;49.182;-0.348;2022-12-11T14:18:16;1.98;;;1.55;;
72493;SDS011;60520;49.182;-0.348;2022-12-11T14:20:43;2.10;;;1.52;;
72493;SDS011;60520;49.182;-0.348;2022-12-11T14:23:15;2.25;;;1.90;;
72493;SDS011;60520;49.182;-0.348;2022-12-11T14:25:51;2.42;;;1.90;;
72493;SDS011;60520;49.182;-0.348;2022-12-11T14:28:19;1.88;;;1.67;;
72493;SDS011;60520;49.182;-0.348;2022-12-11T14:30:48;2.05;;;1.80;;
72493;SDS011;60520;49.182;-0.348;2022-12-11T14:33:15;2.28;;;1.85;;
72493;SDS011;60520;49.182;-0.348;2022-12-11T14:35:43;1.92;;;1.60;;
72493;SDS011;60520;49.182;-0.348;2022-12-11T14:38:14;1.75;;;1.50;;
72493;SDS011;60520;49.182;-0.348;2022-12-11T14:40:42;2.83;;;1.80;;
72493;SDS011;60520;49.182;-0.348;2022-12-11T14:43:13;2.85;;;1.80;;